sensor_id;sensor_type;location;lat;lon;timestamp;P1;durP1;ratioP1;P2;durP2;ratioP2
42146;SDS011;27815;43.410;11.852;2023-08-08T00:02:50;1.05;;;0.73;;
42146;SDS011;27815;43.410;11.852;2023-08-08T00:06:53;1.67;;;0.88;;
42146;SDS011;27815;43.410;11.852;2023-08-08T00:10:55;1.45;;;0.88;;
42146;SDS011;27815;43.410;11.852;2023-08-08T00:14:58;2.45;;;0.70;;
42146;SDS011;27815;43.410;11.852;2023-08-08T00:19:01;1.33;;;0.90;;
42146;SDS011;27815;43.410;11.852;2023-08-08T00:23:05;1.52;;;0.70;;
42146;SDS011;27815;43.410;11.852;2023-08-08T00:27:08;1.60;;;0.80;;
42146;SDS011;27815;43.410;11.852;2023-08-08T00:31:11;1.38;;;0.90;;
42146;SDS011;27815;43.410;11.852;2023-08-08T00:35:14;3.60;;;0.98;;
42146;SDS011;27815;43.410;11.852;2023-08-08T00:39:17;0.93;;;0.73;;
42146;SDS011;27815;43.410;11.852;2023-08-08T00:43:20;1.45;;;0.80;;
42146;SDS011;27815;43.410;11.852;2023-08-08T00:47:23;2.25;;;0.90;;
42146;SDS011;27815;43.410;11.852;2023-08-08T00:51:26;1.80;;;0.85;;
42146;SDS011;27815;43.410;11.852;2023-08-08T00:55:29;1.45;;;0.85;;
42146;SDS011;27815;43.410;11.852;2023-08-08T00:59:33;2.78;;;0.98;;
42146;SDS011;27815;43.410;11.852;2023-08-08T01:03:36;1.67;;;0.73;;
42146;SDS011;27815;43.410;11.852;2023-08-08T01:07:41;1.35;;;0.80;;
42146;SDS011;27815;43.410;11.852;2023-08-08T01:11:49;1.35;;;0.90;;
42146;SDS011;27815;43.410;11.852;2023-08-08T01:15:54;1.40;;;0.73;;
42146;SDS011;27815;43.410;11.852;2023-08-08T01:20:00;3.45;;;1.00;;
42146;SDS011;27815;43.410;11.852;2023-08-08T01:24:23;2.03;;;0.90;;
42146;SDS011;27815;43.410;11.852;2023-08-08T01:32:38;1.25;;;0.70;;
42146;SDS011;27815;43.410;11.852;2023-08-08T01:40:56;1.20;;;0.80;;
42146;SDS011;27815;43.410;11.852;2023-08-08T01:45:01;2.00;;;0.90;;
42146;SDS011;27815;43.410;11.852;2023-08-08T01:49:05;0.95;;;0.65;;
42146;SDS011;27815;43.410;11.852;2023-08-08T01:53:08;0.57;;;0.50;;
42146;SDS011;27815;43.410;11.852;2023-08-08T01:57:11;1.77;;;0.80;;
42146;SDS011;27815;43.410;11.852;2023-08-08T02:01:14;0.65;;;0.63;;
42146;SDS011;27815;43.410;11.852;2023-08-08T02:05:19;1.70;;;0.73;;
42146;SDS011;27815;43.410;11.852;2023-08-08T02:09:22;1.92;;;0.80;;
42146;SDS011;27815;43.410;11.852;2023-08-08T02:13:26;1.30;;;0.70;;
42146;SDS011;27815;43.410;11.852;2023-08-08T02:17:28;1.52;;;0.73;;
42146;SDS011;27815;43.410;11.852;2023-08-08T02:21:32;1.48;;;0.80;;
42146;SDS011;27815;43.410;11.852;2023-08-08T02:25:35;1.90;;;0.82;;
42146;SDS011;27815;43.410;11.852;2023-08-08T02:29:37;1.00;;;0.70;;
42146;SDS011;27815;43.410;11.852;2023-08-08T02:33:40;1.23;;;0.90;;
42146;SDS011;27815;43.410;11.852;2023-08-08T02:37:43;1.77;;;0.80;;
42146;SDS011;27815;43.410;11.852;2023-08-08T02:41:46;1.88;;;0.88;;
42146;SDS011;27815;43.410;11.852;2023-08-08T02:45:49;1.38;;;0.73;;
42146;SDS011;27815;43.410;11.852;2023-08-08T02:49:52;1.42;;;0.80;;
42146;SDS011;27815;43.410;11.852;2023-08-08T02:53:55;1.35;;;0.82;;
42146;SDS011;27815;43.410;11.852;2023-08-08T02:57:59;1.60;;;0.75;;
42146;SDS011;27815;43.410;11.852;2023-08-08T03:02:02;1.10;;;0.90;;
42146;SDS011;27815;43.410;11.852;2023-08-08T03:06:07;1.05;;;0.75;;
42146;SDS011;27815;43.410;11.852;2023-08-08T03:10:11;1.75;;;0.85;;
42146;SDS011;27815;43.410;11.852;2023-08-08T03:14:16;2.55;;;0.80;;
42146;SDS011;27815;43.410;11.852;2023-08-08T03:18:19;0.98;;;0.80;;
42146;SDS011;27815;43.410;11.852;2023-08-08T03:22:22;1.25;;;0.90;;
42146;SDS011;27815;43.410;11.852;2023-08-08T03:26:26;1.88;;;0.98;;
42146;SDS011;27815;43.410;11.852;2023-08-08T03:30:29;2.08;;;1.00;;
42146;SDS011;27815;43.410;11.852;2023-08-08T03:34:31;1.85;;;0.80;;
42146;SDS011;27815;43.410;11.852;2023-08-08T03:38:35;1.83;;;1.05;;
42146;SDS011;27815;43.410;11.852;2023-08-08T03:42:40;1.38;;;1.05;;
42146;SDS011;27815;43.410;11.852;2023-08-08T03:46:43;3.75;;;0.95;;
42146;SDS011;27815;43.410;11.852;2023-08-08T03:50:48;1.50;;;1.15;;
42146;SDS011;27815;43.410;11.852;2023-08-08T03:54:51;1.60;;;1.02;;
42146;SDS011;27815;43.410;11.852;2023-08-08T03:58:57;1.80;;;1.00;;
42146;SDS011;27815;43.410;11.852;2023-08-08T04:03:00;3.03;;;1.20;;
42146;SDS011;27815;43.410;11.852;2023-08-08T04:07:03;1.90;;;1.05;;
42146;SDS011;27815;43.410;11.852;2023-08-08T04:11:06;2.53;;;1.20;;
42146;SDS011;27815;43.410;11.852;2023-08-08T04:15:10;1.05;;;0.90;;
42146;SDS011;27815;43.410;11.852;2023-08-08T04:19:13;1.13;;;0.90;;
42146;SDS011;27815;43.410;11.852;2023-08-08T04:23:15;1.35;;;0.98;;
42146;SDS011;27815;43.410;11.852;2023-08-08T04:27:18;2.22;;;1.13;;
42146;SDS011;27815;43.410;11.852;2023-08-08T04:31:22;3.00;;;1.00;;
42146;SDS011;27815;43.410;11.852;2023-08-08T04:35:30;1.30;;;0.95;;
42146;SDS011;27815;43.410;11.852;2023-08-08T04:39:33;1.23;;;0.90;;
42146;SDS011;27815;43.410;11.852;2023-08-08T04:43:48;3.33;;;1.05;;
42146;SDS011;27815;43.410;11.852;2023-08-08T04:48:04;1.10;;;0.80;;
42146;SDS011;27815;43.410;11.852;2023-08-08T04:52:21;1.05;;;0.80;;
42146;SDS011;27815;43.410;11.852;2023-08-08T04:56:27;3.97;;;0.98;;
42146;SDS011;27815;43.410;11.852;2023-08-08T05:00:31;2.25;;;0.80;;
42146;SDS011;27815;43.410;11.852;2023-08-08T05:04:36;1.58;;;0.90;;
42146;SDS011;27815;43.410;11.852;2023-08-08T05:08:39;6.00;;;1.15;;
42146;SDS011;27815;43.410;11.852;2023-08-08T05:12:42;2.03;;;0.95;;
42146;SDS011;27815;43.410;11.852;2023-08-08T05:16:45;2.38;;;0.70;;
42146;SDS011;27815;43.410;11.852;2023-08-08T05:20:48;1.30;;;0.80;;
42146;SDS011;27815;43.410;11.852;2023-08-08T05:24:51;5.60;;;1.00;;
42146;SDS011;27815;43.410;11.852;2023-08-08T05:28:54;2.33;;;1.00;;
42146;SDS011;27815;43.410;11.852;2023-08-08T05:32:57;1.35;;;0.80;;
42146;SDS011;27815;43.410;11.852;2023-08-08T05:37:10;1.90;;;1.00;;
42146;SDS011;27815;43.410;11.852;2023-08-08T05:41:35;1.50;;;0.85;;
42146;SDS011;27815;43.410;11.852;2023-08-08T05:45:38;3.30;;;1.20;;
42146;SDS011;27815;43.410;11.852;2023-08-08T05:49:41;1.75;;;1.00;;
42146;SDS011;27815;43.410;11.852;2023-08-08T05:53:44;2.20;;;1.20;;
42146;SDS011;27815;43.410;11.852;2023-08-08T05:57:49;1.65;;;1.20;;
42146;SDS011;27815;43.410;11.852;2023-08-08T06:01:52;3.15;;;1.10;;
42146;SDS011;27815;43.410;11.852;2023-08-08T06:05:56;2.28;;;1.40;;
42146;SDS011;27815;43.410;11.852;2023-08-08T06:10:00;2.13;;;1.55;;
42146;SDS011;27815;43.410;11.852;2023-08-08T06:14:03;3.42;;;1.83;;
42146;SDS011;27815;43.410;11.852;2023-08-08T06:18:14;2.40;;;2.10;;
42146;SDS011;27815;43.410;11.852;2023-08-08T06:22:17;2.45;;;2.10;;
42146;SDS011;27815;43.410;11.852;2023-08-08T06:26:26;2.37;;;2.00;;
42146;SDS011;27815;43.410;11.852;2023-08-08T06:30:34;5.95;;;2.80;;
42146;SDS011;27815;43.410;11.852;2023-08-08T06:34:37;3.17;;;2.30;;
42146;SDS011;27815;43.410;11.852;2023-08-08T06:38:40;3.17;;;2.08;;
42146;SDS011;27815;43.410;11.852;2023-08-08T06:42:42;2.88;;;2.13;;
42146;SDS011;27815;43.410;11.852;2023-08-08T06:46:46;4.10;;;2.30;;
42146;SDS011;27815;43.410;11.852;2023-08-08T06:50:49;2.95;;;2.00;;
42146;SDS011;27815;43.410;11.852;2023-08-08T06:54:54;2.47;;;1.60;;
42146;SDS011;27815;43.410;11.852;2023-08-08T06:58:57;3.80;;;1.65;;
42146;SDS011;27815;43.410;11.852;2023-08-08T07:02:59;4.20;;;1.42;;
42146;SDS011;27815;43.410;11.852;2023-08-08T07:07:03;2.30;;;1.50;;
42146;SDS011;27815;43.410;11.852;2023-08-08T07:11:07;2.47;;;1.17;;
42146;SDS011;27815;43.410;11.852;2023-08-08T07:15:10;2.85;;;1.30;;
42146;SDS011;27815;43.410;11.852;2023-08-08T07:19:13;2.90;;;1.10;;
42146;SDS011;27815;43.410;11.852;2023-08-08T07:23:16;2.17;;;1.20;;
42146;SDS011;27815;43.410;11.852;2023-08-08T07:27:19;3.00;;;1.30;;
42146;SDS011;27815;43.410;11.852;2023-08-08T07:31:22;2.60;;;1.40;;
42146;SDS011;27815;43.410;11.852;2023-08-08T07:35:25;2.03;;;1.25;;
42146;SDS011;27815;43.410;11.852;2023-08-08T07:39:28;3.17;;;1.60;;
42146;SDS011;27815;43.410;11.852;2023-08-08T07:43:31;2.10;;;1.15;;
42146;SDS011;27815;43.410;11.852;2023-08-08T07:47:35;2.17;;;1.30;;
42146;SDS011;27815;43.410;11.852;2023-08-08T07:51:38;1.77;;;1.20;;
42146;SDS011;27815;43.410;11.852;2023-08-08T07:55:41;2.58;;;1.20;;
42146;SDS011;27815;43.410;11.852;2023-08-08T07:59:44;1.65;;;1.02;;
42146;SDS011;27815;43.410;11.852;2023-08-08T08:03:47;2.80;;;1.15;;
42146;SDS011;27815;43.410;11.852;2023-08-08T08:07:50;2.17;;;1.10;;
42146;SDS011;27815;43.410;11.852;2023-08-08T08:11:52;1.30;;;1.10;;
42146;SDS011;27815;43.410;11.852;2023-08-08T08:15:55;2.35;;;1.15;;
42146;SDS011;27815;43.410;11.852;2023-08-08T08:19:58;3.85;;;1.10;;
42146;SDS011;27815;43.410;11.852;2023-08-08T08:24:01;2.10;;;0.90;;
42146;SDS011;27815;43.410;11.852;2023-08-08T08:28:06;0.85;;;0.70;;
42146;SDS011;27815;43.410;11.852;2023-08-08T08:32:08;1.88;;;0.90;;
42146;SDS011;27815;43.410;11.852;2023-08-08T08:36:12;1.52;;;0.82;;
42146;SDS011;27815;43.410;11.852;2023-08-08T08:40:15;2.72;;;1.05;;
42146;SDS011;27815;43.410;11.852;2023-08-08T08:44:18;1.90;;;0.90;;
42146;SDS011;27815;43.410;11.852;2023-08-08T08:48:24;1.25;;;0.80;;
42146;SDS011;27815;43.410;11.852;2023-08-08T08:52:27;2.10;;;0.77;;
42146;SDS011;27815;43.410;11.852;2023-08-08T08:56:30;2.10;;;0.80;;
42146;SDS011;27815;43.410;11.852;2023-08-08T09:00:35;2.15;;;1.35;;
42146;SDS011;27815;43.410;11.852;2023-08-08T09:04:39;0.75;;;0.60;;
42146;SDS011;27815;43.410;11.852;2023-08-08T09:08:43;2.15;;;0.70;;
42146;SDS011;27815;43.410;11.852;2023-08-08T09:13:04;1.52;;;0.70;;
42146;SDS011;27815;43.410;11.852;2023-08-08T09:17:12;1.58;;;0.70;;
42146;SDS011;27815;43.410;11.852;2023-08-08T09:21:17;1.55;;;0.73;;
42146;SDS011;27815;43.410;11.852;2023-08-08T09:25:20;0.95;;;0.52;;
42146;SDS011;27815;43.410;11.852;2023-08-08T09:29:24;2.80;;;0.82;;
42146;SDS011;27815;43.410;11.852;2023-08-08T09:33:30;2.07;;;0.83;;
42146;SDS011;27815;43.410;11.852;2023-08-08T09:37:40;2.88;;;0.80;;
42146;SDS011;27815;43.410;11.852;2023-08-08T09:41:50;0.63;;;0.50;;
42146;SDS011;27815;43.410;11.852;2023-08-08T09:45:53;1.33;;;0.60;;
42146;SDS011;27815;43.410;11.852;2023-08-08T09:50:02;3.92;;;0.80;;
42146;SDS011;27815;43.410;11.852;2023-08-08T09:54:09;0.82;;;0.57;;
42146;SDS011;27815;43.410;11.852;2023-08-08T09:58:14;1.48;;;0.68;;
42146;SDS011;27815;43.410;11.852;2023-08-08T10:02:17;0.95;;;0.70;;
42146;SDS011;27815;43.410;11.852;2023-08-08T10:06:23;1.00;;;0.52;;
42146;SDS011;27815;43.410;11.852;2023-08-08T10:10:28;0.90;;;0.40;;
42146;SDS011;27815;43.410;11.852;2023-08-08T10:14:37;1.25;;;0.60;;
42146;SDS011;27815;43.410;11.852;2023-08-08T10:22:59;1.10;;;0.60;;
42146;SDS011;27815;43.410;11.852;2023-08-08T10:27:04;1.77;;;0.67;;
42146;SDS011;27815;43.410;11.852;2023-08-08T10:31:15;2.05;;;0.70;;
42146;SDS011;27815;43.410;11.852;2023-08-08T10:35:21;1.17;;;0.52;;
42146;SDS011;27815;43.410;11.852;2023-08-08T10:39:26;0.95;;;0.60;;
42146;SDS011;27815;43.410;11.852;2023-08-08T10:43:29;1.48;;;0.70;;
42146;SDS011;27815;43.410;11.852;2023-08-08T10:47:36;1.27;;;0.60;;
42146;SDS011;27815;43.410;11.852;2023-08-08T10:51:42;1.25;;;0.60;;
42146;SDS011;27815;43.410;11.852;2023-08-08T10:55:56;1.92;;;0.70;;
42146;SDS011;27815;43.410;11.852;2023-08-08T11:00:16;1.35;;;0.70;;
42146;SDS011;27815;43.410;11.852;2023-08-08T11:04:21;1.48;;;0.85;;
42146;SDS011;27815;43.410;11.852;2023-08-08T11:08:31;0.90;;;0.52;;
42146;SDS011;27815;43.410;11.852;2023-08-08T11:12:35;2.42;;;0.70;;
42146;SDS011;27815;43.410;11.852;2023-08-08T11:16:39;1.08;;;0.68;;
42146;SDS011;27815;43.410;11.852;2023-08-08T11:20:42;2.40;;;0.70;;
42146;SDS011;27815;43.410;11.852;2023-08-08T11:24:45;3.10;;;0.90;;
42146;SDS011;27815;43.410;11.852;2023-08-08T11:28:48;2.80;;;0.73;;
42146;SDS011;27815;43.410;11.852;2023-08-08T11:32:52;1.33;;;0.60;;
42146;SDS011;27815;43.410;11.852;2023-08-08T11:37:07;1.67;;;0.82;;
42146;SDS011;27815;43.410;11.852;2023-08-08T11:41:13;1.55;;;0.80;;
42146;SDS011;27815;43.410;11.852;2023-08-08T11:45:17;1.10;;;0.60;;
42146;SDS011;27815;43.410;11.852;2023-08-08T11:49:22;1.70;;;0.80;;
42146;SDS011;27815;43.410;11.852;2023-08-08T11:53:26;1.83;;;0.80;;
42146;SDS011;27815;43.410;11.852;2023-08-08T11:57:31;1.58;;;0.68;;
42146;SDS011;27815;43.410;11.852;2023-08-08T12:01:35;0.88;;;0.50;;
42146;SDS011;27815;43.410;11.852;2023-08-08T12:05:40;0.95;;;0.50;;
42146;SDS011;27815;43.410;11.852;2023-08-08T12:14:26;1.65;;;0.70;;
42146;SDS011;27815;43.410;11.852;2023-08-08T12:18:32;0.85;;;0.52;;
42146;SDS011;27815;43.410;11.852;2023-08-08T12:22:35;1.15;;;0.77;;
42146;SDS011;27815;43.410;11.852;2023-08-08T12:26:39;1.50;;;0.70;;
42146;SDS011;27815;43.410;11.852;2023-08-08T12:30:42;1.55;;;0.70;;
42146;SDS011;27815;43.410;11.852;2023-08-08T12:35:07;1.75;;;0.63;;
42146;SDS011;27815;43.410;11.852;2023-08-08T12:39:14;2.80;;;0.60;;
42146;SDS011;27815;43.410;11.852;2023-08-08T12:48:47;0.65;;;0.50;;
42146;SDS011;27815;43.410;11.852;2023-08-08T12:53:56;1.48;;;0.65;;
42146;SDS011;27815;43.410;11.852;2023-08-08T13:00:05;1.20;;;0.70;;
42146;SDS011;27815;43.410;11.852;2023-08-08T13:04:11;1.25;;;0.68;;
42146;SDS011;27815;43.410;11.852;2023-08-08T13:08:46;1.40;;;0.65;;
42146;SDS011;27815;43.410;11.852;2023-08-08T13:12:52;1.10;;;0.60;;
42146;SDS011;27815;43.410;11.852;2023-08-08T13:16:55;1.25;;;0.60;;
42146;SDS011;27815;43.410;11.852;2023-08-08T13:26:27;1.52;;;0.65;;
42146;SDS011;27815;43.410;11.852;2023-08-08T13:31:20;0.80;;;0.60;;
42146;SDS011;27815;43.410;11.852;2023-08-08T13:36:39;1.73;;;0.70;;
42146;SDS011;27815;43.410;11.852;2023-08-08T13:41:01;2.15;;;1.00;;
42146;SDS011;27815;43.410;11.852;2023-08-08T13:45:22;1.90;;;0.80;;
42146;SDS011;27815;43.410;11.852;2023-08-08T13:49:51;1.13;;;0.60;;
42146;SDS011;27815;43.410;11.852;2023-08-08T13:59:15;1.00;;;0.50;;
42146;SDS011;27815;43.410;11.852;2023-08-08T14:03:27;1.23;;;0.60;;
42146;SDS011;27815;43.410;11.852;2023-08-08T14:07:32;1.40;;;0.80;;
42146;SDS011;27815;43.410;11.852;2023-08-08T14:11:57;2.58;;;1.10;;
42146;SDS011;27815;43.410;11.852;2023-08-08T14:16:14;1.40;;;0.60;;
42146;SDS011;27815;43.410;11.852;2023-08-08T14:20:30;1.35;;;0.88;;
42146;SDS011;27815;43.410;11.852;2023-08-08T14:24:33;0.93;;;0.63;;
42146;SDS011;27815;43.410;11.852;2023-08-08T14:28:37;3.08;;;0.80;;
42146;SDS011;27815;43.410;11.852;2023-08-08T14:32:44;1.48;;;0.60;;
42146;SDS011;27815;43.410;11.852;2023-08-08T14:37:40;1.75;;;0.80;;
42146;SDS011;27815;43.410;11.852;2023-08-08T14:42:07;2.67;;;0.60;;
42146;SDS011;27815;43.410;11.852;2023-08-08T14:46:10;1.10;;;0.60;;
42146;SDS011;27815;43.410;11.852;2023-08-08T14:50:13;1.10;;;0.60;;
42146;SDS011;27815;43.410;11.852;2023-08-08T14:54:16;1.42;;;0.70;;
42146;SDS011;27815;43.410;11.852;2023-08-08T14:58:19;2.30;;;0.73;;
42146;SDS011;27815;43.410;11.852;2023-08-08T15:02:22;1.45;;;0.70;;
42146;SDS011;27815;43.410;11.852;2023-08-08T15:06:25;1.60;;;0.90;;
42146;SDS011;27815;43.410;11.852;2023-08-08T15:10:28;1.60;;;0.70;;
42146;SDS011;27815;43.410;11.852;2023-08-08T15:14:30;2.47;;;0.73;;
42146;SDS011;27815;43.410;11.852;2023-08-08T15:18:33;1.70;;;0.60;;
42146;SDS011;27815;43.410;11.852;2023-08-08T15:22:36;1.52;;;0.80;;
42146;SDS011;27815;43.410;11.852;2023-08-08T15:26:39;1.05;;;0.60;;
42146;SDS011;27815;43.410;11.852;2023-08-08T15:30:42;2.28;;;0.77;;
42146;SDS011;27815;43.410;11.852;2023-08-08T15:34:45;1.27;;;0.77;;
42146;SDS011;27815;43.410;11.852;2023-08-08T15:38:48;1.95;;;0.80;;
42146;SDS011;27815;43.410;11.852;2023-08-08T15:42:51;2.03;;;0.98;;
42146;SDS011;27815;43.410;11.852;2023-08-08T15:46:54;1.73;;;0.80;;
42146;SDS011;27815;43.410;11.852;2023-08-08T15:50:57;1.65;;;0.85;;
42146;SDS011;27815;43.410;11.852;2023-08-08T15:55:00;2.60;;;0.85;;
42146;SDS011;27815;43.410;11.852;2023-08-08T15:59:04;2.63;;;1.08;;
42146;SDS011;27815;43.410;11.852;2023-08-08T16:03:07;1.80;;;0.90;;
42146;SDS011;27815;43.410;11.852;2023-08-08T16:07:10;2.97;;;1.35;;
42146;SDS011;27815;43.410;11.852;2023-08-08T16:11:13;1.98;;;0.90;;
42146;SDS011;27815;43.410;11.852;2023-08-08T16:15:16;2.33;;;1.00;;
42146;SDS011;27815;43.410;11.852;2023-08-08T16:19:20;3.30;;;1.60;;
42146;SDS011;27815;43.410;11.852;2023-08-08T16:23:24;2.72;;;1.48;;
42146;SDS011;27815;43.410;11.852;2023-08-08T16:27:27;2.40;;;1.15;;
42146;SDS011;27815;43.410;11.852;2023-08-08T16:31:29;4.95;;;1.10;;
42146;SDS011;27815;43.410;11.852;2023-08-08T16:35:34;2.33;;;0.98;;
42146;SDS011;27815;43.410;11.852;2023-08-08T16:39:37;3.25;;;0.90;;
42146;SDS011;27815;43.410;11.852;2023-08-08T16:43:40;2.03;;;1.30;;
42146;SDS011;27815;43.410;11.852;2023-08-08T16:47:44;1.98;;;1.10;;
42146;SDS011;27815;43.410;11.852;2023-08-08T16:51:47;3.17;;;1.50;;
42146;SDS011;27815;43.410;11.852;2023-08-08T16:55:50;2.05;;;1.15;;
42146;SDS011;27815;43.410;11.852;2023-08-08T16:59:53;1.27;;;0.73;;
42146;SDS011;27815;43.410;11.852;2023-08-08T17:03:56;7.68;;;2.65;;
42146;SDS011;27815;43.410;11.852;2023-08-08T17:07:59;7.25;;;1.58;;
42146;SDS011;27815;43.410;11.852;2023-08-08T17:12:03;1.85;;;1.00;;
42146;SDS011;27815;43.410;11.852;2023-08-08T17:16:06;2.47;;;1.20;;
42146;SDS011;27815;43.410;11.852;2023-08-08T17:20:09;2.22;;;1.33;;
42146;SDS011;27815;43.410;11.852;2023-08-08T17:24:12;4.75;;;1.25;;
42146;SDS011;27815;43.410;11.852;2023-08-08T17:28:18;4.47;;;1.50;;
42146;SDS011;27815;43.410;11.852;2023-08-08T17:32:21;2.88;;;0.93;;
42146;SDS011;27815;43.410;11.852;2023-08-08T17:36:24;1.55;;;1.00;;
42146;SDS011;27815;43.410;11.852;2023-08-08T17:40:27;2.20;;;1.08;;
42146;SDS011;27815;43.410;11.852;2023-08-08T17:44:30;2.20;;;1.30;;
42146;SDS011;27815;43.410;11.852;2023-08-08T17:48:33;2.42;;;1.10;;
42146;SDS011;27815;43.410;11.852;2023-08-08T17:52:36;1.80;;;1.05;;
42146;SDS011;27815;43.410;11.852;2023-08-08T17:56:39;1.70;;;0.65;;
42146;SDS011;27815;43.410;11.852;2023-08-08T18:00:50;2.92;;;0.82;;
42146;SDS011;27815;43.410;11.852;2023-08-08T18:04:53;2.13;;;0.73;;
42146;SDS011;27815;43.410;11.852;2023-08-08T18:08:56;2.50;;;0.90;;
42146;SDS011;27815;43.410;11.852;2023-08-08T18:12:59;1.83;;;0.73;;
42146;SDS011;27815;43.410;11.852;2023-08-08T18:17:02;2.13;;;0.93;;
42146;SDS011;27815;43.410;11.852;2023-08-08T18:21:05;2.75;;;1.00;;
42146;SDS011;27815;43.410;11.852;2023-08-08T18:25:08;1.55;;;0.90;;
42146;SDS011;27815;43.410;11.852;2023-08-08T18:29:11;2.45;;;0.80;;
42146;SDS011;27815;43.410;11.852;2023-08-08T18:33:15;2.03;;;1.00;;
42146;SDS011;27815;43.410;11.852;2023-08-08T18:37:17;4.88;;;0.95;;
42146;SDS011;27815;43.410;11.852;2023-08-08T18:41:21;2.78;;;0.80;;
42146;SDS011;27815;43.410;11.852;2023-08-08T18:45:24;1.45;;;0.80;;
42146;SDS011;27815;43.410;11.852;2023-08-08T18:49:26;2.90;;;0.95;;
42146;SDS011;27815;43.410;11.852;2023-08-08T18:53:30;3.33;;;0.85;;
42146;SDS011;27815;43.410;11.852;2023-08-08T18:57:33;1.95;;;0.70;;
42146;SDS011;27815;43.410;11.852;2023-08-08T19:01:36;1.92;;;0.93;;
42146;SDS011;27815;43.410;11.852;2023-08-08T19:05:39;0.95;;;0.70;;
42146;SDS011;27815;43.410;11.852;2023-08-08T19:09:42;2.40;;;0.90;;
42146;SDS011;27815;43.410;11.852;2023-08-08T19:13:45;2.25;;;0.90;;
42146;SDS011;27815;43.410;11.852;2023-08-08T19:17:48;3.22;;;0.70;;
42146;SDS011;27815;43.410;11.852;2023-08-08T19:21:58;1.67;;;0.70;;
42146;SDS011;27815;43.410;11.852;2023-08-08T19:26:02;2.85;;;0.90;;
42146;SDS011;27815;43.410;11.852;2023-08-08T19:30:07;1.67;;;0.82;;
42146;SDS011;27815;43.410;11.852;2023-08-08T19:34:11;2.63;;;1.00;;
42146;SDS011;27815;43.410;11.852;2023-08-08T19:38:14;5.70;;;1.20;;
42146;SDS011;27815;43.410;11.852;2023-08-08T19:42:17;2.97;;;1.10;;
42146;SDS011;27815;43.410;11.852;2023-08-08T19:46:26;5.82;;;1.10;;
42146;SDS011;27815;43.410;11.852;2023-08-08T19:50:33;1.88;;;0.80;;
42146;SDS011;27815;43.410;11.852;2023-08-08T19:54:36;3.38;;;1.00;;
42146;SDS011;27815;43.410;11.852;2023-08-08T19:58:40;3.28;;;1.20;;
42146;SDS011;27815;43.410;11.852;2023-08-08T20:02:45;3.08;;;1.13;;
42146;SDS011;27815;43.410;11.852;2023-08-08T20:06:48;2.13;;;1.00;;
42146;SDS011;27815;43.410;11.852;2023-08-08T20:10:51;2.28;;;1.00;;
42146;SDS011;27815;43.410;11.852;2023-08-08T20:14:54;2.72;;;1.35;;
42146;SDS011;27815;43.410;11.852;2023-08-08T20:19:03;1.63;;;0.90;;
42146;SDS011;27815;43.410;11.852;2023-08-08T20:23:06;3.47;;;1.10;;
42146;SDS011;27815;43.410;11.852;2023-08-08T20:27:09;2.15;;;1.05;;
42146;SDS011;27815;43.410;11.852;2023-08-08T20:31:12;2.70;;;1.00;;
42146;SDS011;27815;43.410;11.852;2023-08-08T20:35:15;4.53;;;1.17;;
42146;SDS011;27815;43.410;11.852;2023-08-08T20:39:18;4.40;;;1.17;;
42146;SDS011;27815;43.410;11.852;2023-08-08T20:43:21;3.35;;;1.08;;
42146;SDS011;27815;43.410;11.852;2023-08-08T20:47:25;2.75;;;1.00;;
42146;SDS011;27815;43.410;11.852;2023-08-08T20:51:28;2.75;;;0.85;;
42146;SDS011;27815;43.410;11.852;2023-08-08T20:55:30;4.35;;;1.00;;
42146;SDS011;27815;43.410;11.852;2023-08-08T20:59:33;2.13;;;1.05;;
42146;SDS011;27815;43.410;11.852;2023-08-08T21:03:36;3.85;;;0.98;;
42146;SDS011;27815;43.410;11.852;2023-08-08T21:07:39;2.03;;;1.00;;
42146;SDS011;27815;43.410;11.852;2023-08-08T21:11:42;2.22;;;0.90;;
42146;SDS011;27815;43.410;11.852;2023-08-08T21:15:45;1.70;;;0.90;;
42146;SDS011;27815;43.410;11.852;2023-08-08T21:19:48;1.98;;;1.08;;
42146;SDS011;27815;43.410;11.852;2023-08-08T21:23:55;2.45;;;0.80;;
42146;SDS011;27815;43.410;11.852;2023-08-08T21:27:58;1.88;;;0.95;;
42146;SDS011;27815;43.410;11.852;2023-08-08T21:32:02;3.92;;;1.27;;
42146;SDS011;27815;43.410;11.852;2023-08-08T21:36:06;4.40;;;1.13;;
42146;SDS011;27815;43.410;11.852;2023-08-08T21:40:09;3.28;;;0.93;;
42146;SDS011;27815;43.410;11.852;2023-08-08T21:44:12;3.53;;;1.15;;
42146;SDS011;27815;43.410;11.852;2023-08-08T21:48:15;2.13;;;0.80;;
42146;SDS011;27815;43.410;11.852;2023-08-08T21:52:18;3.50;;;0.93;;
42146;SDS011;27815;43.410;11.852;2023-08-08T21:56:21;2.55;;;0.90;;
42146;SDS011;27815;43.410;11.852;2023-08-08T22:00:23;1.73;;;0.95;;
42146;SDS011;27815;43.410;11.852;2023-08-08T22:04:26;2.90;;;0.88;;
42146;SDS011;27815;43.410;11.852;2023-08-08T22:08:29;2.28;;;0.70;;
42146;SDS011;27815;43.410;11.852;2023-08-08T22:12:33;1.90;;;0.90;;
42146;SDS011;27815;43.410;11.852;2023-08-08T22:16:36;3.55;;;0.90;;
42146;SDS011;27815;43.410;11.852;2023-08-08T22:20:39;1.70;;;0.88;;
42146;SDS011;27815;43.410;11.852;2023-08-08T22:24:42;1.75;;;0.95;;
42146;SDS011;27815;43.410;11.852;2023-08-08T22:28:48;1.20;;;0.77;;
42146;SDS011;27815;43.410;11.852;2023-08-08T22:32:51;1.52;;;0.80;;
42146;SDS011;27815;43.410;11.852;2023-08-08T22:36:55;0.93;;;0.70;;
42146;SDS011;27815;43.410;11.852;2023-08-08T22:40:58;3.28;;;0.93;;
42146;SDS011;27815;43.410;11.852;2023-08-08T22:45:00;1.45;;;0.82;;
42146;SDS011;27815;43.410;11.852;2023-08-08T22:49:03;2.72;;;0.85;;
42146;SDS011;27815;43.410;11.852;2023-08-08T22:53:06;1.80;;;0.80;;
42146;SDS011;27815;43.410;11.852;2023-08-08T22:57:09;0.95;;;0.65;;
42146;SDS011;27815;43.410;11.852;2023-08-08T23:01:13;2.40;;;1.00;;
42146;SDS011;27815;43.410;11.852;2023-08-08T23:05:16;3.88;;;0.70;;
42146;SDS011;27815;43.410;11.852;2023-08-08T23:09:19;3.05;;;1.02;;
42146;SDS011;27815;43.410;11.852;2023-08-08T23:13:22;1.33;;;0.70;;
42146;SDS011;27815;43.410;11.852;2023-08-08T23:17:25;1.80;;;0.70;;
42146;SDS011;27815;43.410;11.852;2023-08-08T23:21:28;2.28;;;1.00;;
42146;SDS011;27815;43.410;11.852;2023-08-08T23:25:30;2.47;;;0.85;;
42146;SDS011;27815;43.410;11.852;2023-08-08T23:29:34;2.85;;;0.85;;
42146;SDS011;27815;43.410;11.852;2023-08-08T23:33:37;1.58;;;0.90;;
42146;SDS011;27815;43.410;11.852;2023-08-08T23:37:40;2.55;;;0.90;;
42146;SDS011;27815;43.410;11.852;2023-08-08T23:41:44;1.30;;;0.80;;
42146;SDS011;27815;43.410;11.852;2023-08-08T23:45:47;1.95;;;1.25;;
42146;SDS011;27815;43.410;11.852;2023-08-08T23:49:50;1.70;;;0.70;;
42146;SDS011;27815;43.410;11.852;2023-08-08T23:53:53;2.30;;;0.90;;
42146;SDS011;27815;43.410;11.852;2023-08-08T23:57:56;2.38;;;0.77;;
